sensor_id;sensor_type;location;lat;lon;timestamp;temperature;humidity
3850;DHT22;1940;51.052;13.678;2022-08-19T00:00:32;22.10;86.50
3850;DHT22;1940;51.052;13.678;2022-08-19T00:02:58;22.10;86.60
3850;DHT22;1940;51.052;13.678;2022-08-19T00:05:23;22.00;86.70
3850;DHT22;1940;51.052;13.678;2022-08-19T00:07:50;22.00;86.80
3850;DHT22;1940;51.052;13.678;2022-08-19T00:10:17;22.00;86.90
3850;DHT22;1940;51.052;13.678;2022-08-19T00:12:42;22.00;87.00
3850;DHT22;1940;51.052;13.678;2022-08-19T00:15:11;22.00;87.10
3850;DHT22;1940;51.052;13.678;2022-08-19T00:17:42;22.00;87.10
3850;DHT22;1940;51.052;13.678;2022-08-19T00:20:11;22.00;87.20
3850;DHT22;1940;51.052;13.678;2022-08-19T00:22:37;22.00;87.30
3850;DHT22;1940;51.052;13.678;2022-08-19T00:25:05;21.90;87.40
3850;DHT22;1940;51.052;13.678;2022-08-19T00:27:31;21.90;87.70
3850;DHT22;1940;51.052;13.678;2022-08-19T00:29:56;21.90;87.90
3850;DHT22;1940;51.052;13.678;2022-08-19T00:32:22;21.80;88.10
3850;DHT22;1940;51.052;13.678;2022-08-19T00:34:47;21.80;88.20
3850;DHT22;1940;51.052;13.678;2022-08-19T00:37:13;21.80;88.30
3850;DHT22;1940;51.052;13.678;2022-08-19T00:39:38;21.80;88.20
3850;DHT22;1940;51.052;13.678;2022-08-19T00:42:04;21.80;88.40
3850;DHT22;1940;51.052;13.678;2022-08-19T00:44:31;21.80;88.40
3850;DHT22;1940;51.052;13.678;2022-08-19T00:46:58;21.80;88.50
3850;DHT22;1940;51.052;13.678;2022-08-19T00:49:38;21.80;88.40
3850;DHT22;1940;51.052;13.678;2022-08-19T00:52:12;21.80;88.40
3850;DHT22;1940;51.052;13.678;2022-08-19T00:54:40;21.80;88.50
3850;DHT22;1940;51.052;13.678;2022-08-19T00:57:12;21.70;88.80
3850;DHT22;1940;51.052;13.678;2022-08-19T00:59:40;21.70;88.90
3850;DHT22;1940;51.052;13.678;2022-08-19T01:02:07;21.70;89.10
3850;DHT22;1940;51.052;13.678;2022-08-19T01:04:33;21.60;89.30
3850;DHT22;1940;51.052;13.678;2022-08-19T01:06:59;21.60;89.50
3850;DHT22;1940;51.052;13.678;2022-08-19T01:09:24;21.60;89.50
3850;DHT22;1940;51.052;13.678;2022-08-19T01:11:50;21.50;89.80
3850;DHT22;1940;51.052;13.678;2022-08-19T01:14:16;21.60;89.70
3850;DHT22;1940;51.052;13.678;2022-08-19T01:16:43;21.60;89.80
3850;DHT22;1940;51.052;13.678;2022-08-19T01:19:16;21.50;89.90
3850;DHT22;1940;51.052;13.678;2022-08-19T01:21:51;21.50;90.00
3850;DHT22;1940;51.052;13.678;2022-08-19T01:24:17;21.50;90.10
3850;DHT22;1940;51.052;13.678;2022-08-19T01:26:44;21.60;90.10
3850;DHT22;1940;51.052;13.678;2022-08-19T01:29:10;21.60;90.20
3850;DHT22;1940;51.052;13.678;2022-08-19T01:31:36;21.60;90.30
3850;DHT22;1940;51.052;13.678;2022-08-19T01:34:05;21.60;90.20
3850;DHT22;1940;51.052;13.678;2022-08-19T01:39:05;21.60;90.20
3850;DHT22;1940;51.052;13.678;2022-08-19T01:41:31;21.60;90.40
3850;DHT22;1940;51.052;13.678;2022-08-19T01:43:56;21.60;90.40
3850;DHT22;1940;51.052;13.678;2022-08-19T01:46:22;21.60;90.30
3850;DHT22;1940;51.052;13.678;2022-08-19T01:48:47;21.70;90.10
3850;DHT22;1940;51.052;13.678;2022-08-19T01:51:13;21.70;90.20
3850;DHT22;1940;51.052;13.678;2022-08-19T01:53:40;21.70;90.20
3850;DHT22;1940;51.052;13.678;2022-08-19T01:56:06;21.60;90.40
3850;DHT22;1940;51.052;13.678;2022-08-19T01:58:35;21.60;90.60
3850;DHT22;1940;51.052;13.678;2022-08-19T02:01:03;21.60;90.70
3850;DHT22;1940;51.052;13.678;2022-08-19T02:03:29;21.60;90.50
3850;DHT22;1940;51.052;13.678;2022-08-19T02:05:57;21.70;90.30
3850;DHT22;1940;51.052;13.678;2022-08-19T02:08:25;21.60;90.60
3850;DHT22;1940;51.052;13.678;2022-08-19T02:10:51;21.60;90.80
3850;DHT22;1940;51.052;13.678;2022-08-19T02:13:16;21.50;91.00
3850;DHT22;1940;51.052;13.678;2022-08-19T02:15:42;21.50;91.00
3850;DHT22;1940;51.052;13.678;2022-08-19T02:18:08;21.50;91.20
3850;DHT22;1940;51.052;13.678;2022-08-19T02:20:34;21.40;91.60
3850;DHT22;1940;51.052;13.678;2022-08-19T02:22:59;21.40;91.90
3850;DHT22;1940;51.052;13.678;2022-08-19T02:25:26;21.40;91.90
3850;DHT22;1940;51.052;13.678;2022-08-19T02:27:52;21.40;91.90
3850;DHT22;1940;51.052;13.678;2022-08-19T02:30:19;21.40;91.80
3850;DHT22;1940;51.052;13.678;2022-08-19T02:32:45;21.50;91.50
3850;DHT22;1940;51.052;13.678;2022-08-19T02:35:12;21.50;91.50
3850;DHT22;1940;51.052;13.678;2022-08-19T02:37:37;21.60;91.30
3850;DHT22;1940;51.052;13.678;2022-08-19T02:40:22;21.60;91.10
3850;DHT22;1940;51.052;13.678;2022-08-19T02:42:47;21.70;90.90
3850;DHT22;1940;51.052;13.678;2022-08-19T02:45:13;21.80;90.80
3850;DHT22;1940;51.052;13.678;2022-08-19T02:47:39;21.80;90.60
3850;DHT22;1940;51.052;13.678;2022-08-19T02:50:05;21.80;90.60
3850;DHT22;1940;51.052;13.678;2022-08-19T02:52:33;21.60;91.10
3850;DHT22;1940;51.052;13.678;2022-08-19T02:54:59;21.60;91.20
3850;DHT22;1940;51.052;13.678;2022-08-19T02:57:25;21.70;91.20
3850;DHT22;1940;51.052;13.678;2022-08-19T02:59:51;21.70;90.90
3850;DHT22;1940;51.052;13.678;2022-08-19T03:02:16;21.70;91.00
3850;DHT22;1940;51.052;13.678;2022-08-19T03:04:42;21.60;91.10
3850;DHT22;1940;51.052;13.678;2022-08-19T03:07:08;21.60;91.30
3850;DHT22;1940;51.052;13.678;2022-08-19T03:09:36;21.60;91.20
3850;DHT22;1940;51.052;13.678;2022-08-19T03:12:03;21.70;91.10
3850;DHT22;1940;51.052;13.678;2022-08-19T03:14:31;21.70;91.10
3850;DHT22;1940;51.052;13.678;2022-08-19T03:16:57;21.70;91.00
3850;DHT22;1940;51.052;13.678;2022-08-19T03:19:23;21.60;91.20
3850;DHT22;1940;51.052;13.678;2022-08-19T03:21:49;21.60;91.10
3850;DHT22;1940;51.052;13.678;2022-08-19T03:24:16;21.60;91.20
3850;DHT22;1940;51.052;13.678;2022-08-19T03:26:46;21.60;91.40
3850;DHT22;1940;51.052;13.678;2022-08-19T03:29:12;21.60;91.40
3850;DHT22;1940;51.052;13.678;2022-08-19T03:31:40;21.60;91.30
3850;DHT22;1940;51.052;13.678;2022-08-19T03:34:06;21.60;91.40
3850;DHT22;1940;51.052;13.678;2022-08-19T03:36:32;21.70;91.10
3850;DHT22;1940;51.052;13.678;2022-08-19T03:39:00;21.60;91.00
3850;DHT22;1940;51.052;13.678;2022-08-19T03:41:29;21.70;91.10
3850;DHT22;1940;51.052;13.678;2022-08-19T03:43:56;21.60;91.20
3850;DHT22;1940;51.052;13.678;2022-08-19T03:46:27;21.60;91.10
3850;DHT22;1940;51.052;13.678;2022-08-19T03:48:56;21.60;91.30
3850;DHT22;1940;51.052;13.678;2022-08-19T03:51:33;21.70;91.00
3850;DHT22;1940;51.052;13.678;2022-08-19T03:54:01;21.80;90.90
3850;DHT22;1940;51.052;13.678;2022-08-19T03:56:27;21.80;90.60
3850;DHT22;1940;51.052;13.678;2022-08-19T03:58:54;21.70;90.70
3850;DHT22;1940;51.052;13.678;2022-08-19T04:01:23;21.80;90.50
3850;DHT22;1940;51.052;13.678;2022-08-19T04:03:52;21.80;90.40
3850;DHT22;1940;51.052;13.678;2022-08-19T04:06:22;21.70;90.40
3850;DHT22;1940;51.052;13.678;2022-08-19T04:08:50;21.60;90.90
3850;DHT22;1940;51.052;13.678;2022-08-19T04:11:19;21.50;91.20
3850;DHT22;1940;51.052;13.678;2022-08-19T04:13:49;21.50;91.40
3850;DHT22;1940;51.052;13.678;2022-08-19T04:16:17;21.50;91.40
3850;DHT22;1940;51.052;13.678;2022-08-19T04:18:43;21.40;91.60
3850;DHT22;1940;51.052;13.678;2022-08-19T04:21:16;21.40;91.50
3850;DHT22;1940;51.052;13.678;2022-08-19T04:23:41;21.40;91.50
3850;DHT22;1940;51.052;13.678;2022-08-19T04:26:07;21.30;91.90
3850;DHT22;1940;51.052;13.678;2022-08-19T04:28:37;21.30;92.10
3850;DHT22;1940;51.052;13.678;2022-08-19T04:31:02;21.40;91.90
3850;DHT22;1940;51.052;13.678;2022-08-19T04:33:28;21.40;91.70
3850;DHT22;1940;51.052;13.678;2022-08-19T04:35:53;21.50;91.60
3850;DHT22;1940;51.052;13.678;2022-08-19T04:38:21;21.60;91.20
3850;DHT22;1940;51.052;13.678;2022-08-19T04:40:51;21.50;91.10
3850;DHT22;1940;51.052;13.678;2022-08-19T04:43:37;21.60;91.10
3850;DHT22;1940;51.052;13.678;2022-08-19T04:46:05;21.70;90.90
3850;DHT22;1940;51.052;13.678;2022-08-19T04:48:31;21.70;90.60
3850;DHT22;1940;51.052;13.678;2022-08-19T04:50:58;21.80;90.50
3850;DHT22;1940;51.052;13.678;2022-08-19T04:53:28;21.80;90.20
3850;DHT22;1940;51.052;13.678;2022-08-19T04:55:58;21.80;90.40
3850;DHT22;1940;51.052;13.678;2022-08-19T04:58:26;21.80;90.30
3850;DHT22;1940;51.052;13.678;2022-08-19T05:00:52;21.80;90.10
3850;DHT22;1940;51.052;13.678;2022-08-19T05:03:17;21.80;90.20
3850;DHT22;1940;51.052;13.678;2022-08-19T05:05:45;21.80;90.30
3850;DHT22;1940;51.052;13.678;2022-08-19T05:08:12;21.80;90.30
3850;DHT22;1940;51.052;13.678;2022-08-19T05:10:38;21.80;90.30
3850;DHT22;1940;51.052;13.678;2022-08-19T05:13:04;21.80;90.10
3850;DHT22;1940;51.052;13.678;2022-08-19T05:15:31;21.80;90.30
3850;DHT22;1940;51.052;13.678;2022-08-19T05:17:56;21.70;90.40
3850;DHT22;1940;51.052;13.678;2022-08-19T05:20:41;21.60;90.70
3850;DHT22;1940;51.052;13.678;2022-08-19T05:23:25;21.60;90.50
3850;DHT22;1940;51.052;13.678;2022-08-19T05:25:51;21.60;90.70
3850;DHT22;1940;51.052;13.678;2022-08-19T05:28:18;21.60;90.80
3850;DHT22;1940;51.052;13.678;2022-08-19T05:30:44;21.60;90.70
3850;DHT22;1940;51.052;13.678;2022-08-19T05:33:10;21.60;90.70
3850;DHT22;1940;51.052;13.678;2022-08-19T05:35:37;21.50;90.70
3850;DHT22;1940;51.052;13.678;2022-08-19T05:38:04;21.50;90.80
3850;DHT22;1940;51.052;13.678;2022-08-19T05:40:34;21.50;90.80
3850;DHT22;1940;51.052;13.678;2022-08-19T05:43:02;21.50;90.70
3850;DHT22;1940;51.052;13.678;2022-08-19T05:45:27;21.50;90.70
3850;DHT22;1940;51.052;13.678;2022-08-19T05:47:53;21.50;91.00
3850;DHT22;1940;51.052;13.678;2022-08-19T05:50:19;21.50;91.00
3850;DHT22;1940;51.052;13.678;2022-08-19T05:52:44;21.50;90.80
3850;DHT22;1940;51.052;13.678;2022-08-19T05:55:10;21.50;90.50
3850;DHT22;1940;51.052;13.678;2022-08-19T05:57:36;21.50;90.30
3850;DHT22;1940;51.052;13.678;2022-08-19T06:00:03;21.50;90.30
3850;DHT22;1940;51.052;13.678;2022-08-19T06:02:33;21.50;90.20
3850;DHT22;1940;51.052;13.678;2022-08-19T06:04:58;21.50;90.00
3850;DHT22;1940;51.052;13.678;2022-08-19T06:07:24;21.50;90.10
3850;DHT22;1940;51.052;13.678;2022-08-19T06:09:50;21.50;89.90
3850;DHT22;1940;51.052;13.678;2022-08-19T06:12:15;21.50;89.80
3850;DHT22;1940;51.052;13.678;2022-08-19T06:14:41;21.50;89.70
3850;DHT22;1940;51.052;13.678;2022-08-19T06:17:06;21.60;89.50
3850;DHT22;1940;51.052;13.678;2022-08-19T06:19:32;21.60;89.40
3850;DHT22;1940;51.052;13.678;2022-08-19T06:21:59;21.60;89.20
3850;DHT22;1940;51.052;13.678;2022-08-19T06:24:28;21.60;89.10
3850;DHT22;1940;51.052;13.678;2022-08-19T06:26:56;21.60;89.30
3850;DHT22;1940;51.052;13.678;2022-08-19T06:29:23;21.60;89.20
3850;DHT22;1940;51.052;13.678;2022-08-19T06:31:51;21.70;89.10
3850;DHT22;1940;51.052;13.678;2022-08-19T06:34:18;21.70;89.20
3850;DHT22;1940;51.052;13.678;2022-08-19T06:36:47;21.80;89.20
3850;DHT22;1940;51.052;13.678;2022-08-19T06:39:23;21.80;89.10
3850;DHT22;1940;51.052;13.678;2022-08-19T06:41:52;21.80;89.10
3850;DHT22;1940;51.052;13.678;2022-08-19T06:44:20;21.90;89.10
3850;DHT22;1940;51.052;13.678;2022-08-19T06:46:46;21.90;88.90
3850;DHT22;1940;51.052;13.678;2022-08-19T06:49:12;21.80;89.10
3850;DHT22;1940;51.052;13.678;2022-08-19T06:51:44;21.90;89.10
3850;DHT22;1940;51.052;13.678;2022-08-19T06:54:10;21.90;89.00
3850;DHT22;1940;51.052;13.678;2022-08-19T06:56:36;21.80;89.10
3850;DHT22;1940;51.052;13.678;2022-08-19T06:59:04;21.80;89.40
3850;DHT22;1940;51.052;13.678;2022-08-19T07:01:33;21.80;89.60
3850;DHT22;1940;51.052;13.678;2022-08-19T07:03:59;21.80;89.70
3850;DHT22;1940;51.052;13.678;2022-08-19T07:06:26;21.80;89.80
3850;DHT22;1940;51.052;13.678;2022-08-19T07:08:52;21.80;90.10
3850;DHT22;1940;51.052;13.678;2022-08-19T07:11:17;21.80;90.50
3850;DHT22;1940;51.052;13.678;2022-08-19T07:13:44;21.80;90.70
3850;DHT22;1940;51.052;13.678;2022-08-19T07:16:13;21.70;91.00
3850;DHT22;1940;51.052;13.678;2022-08-19T07:18:39;21.60;91.10
3850;DHT22;1940;51.052;13.678;2022-08-19T07:21:11;21.60;91.60
3850;DHT22;1940;51.052;13.678;2022-08-19T07:23:37;21.60;91.60
3850;DHT22;1940;51.052;13.678;2022-08-19T07:26:14;21.60;91.90
3850;DHT22;1940;51.052;13.678;2022-08-19T07:28:40;21.50;92.30
3850;DHT22;1940;51.052;13.678;2022-08-19T07:31:10;21.50;92.50
3850;DHT22;1940;51.052;13.678;2022-08-19T07:33:36;21.50;92.80
3850;DHT22;1940;51.052;13.678;2022-08-19T07:36:06;21.40;93.00
3850;DHT22;1940;51.052;13.678;2022-08-19T07:38:36;21.40;93.30
3850;DHT22;1940;51.052;13.678;2022-08-19T07:41:02;21.40;93.50
3850;DHT22;1940;51.052;13.678;2022-08-19T07:43:28;21.40;93.50
3850;DHT22;1940;51.052;13.678;2022-08-19T07:45:55;21.40;93.60
3850;DHT22;1940;51.052;13.678;2022-08-19T07:48:25;21.40;93.70
3850;DHT22;1940;51.052;13.678;2022-08-19T07:50:56;21.40;93.70
3850;DHT22;1940;51.052;13.678;2022-08-19T07:53:23;21.40;93.80
3850;DHT22;1940;51.052;13.678;2022-08-19T07:55:49;21.30;94.00
3850;DHT22;1940;51.052;13.678;2022-08-19T07:58:18;21.30;94.20
3850;DHT22;1940;51.052;13.678;2022-08-19T08:00:45;21.30;93.90
3850;DHT22;1940;51.052;13.678;2022-08-19T08:03:11;21.30;94.20
3850;DHT22;1940;51.052;13.678;2022-08-19T08:05:37;21.30;93.90
3850;DHT22;1940;51.052;13.678;2022-08-19T08:08:22;21.30;94.10
3850;DHT22;1940;51.052;13.678;2022-08-19T08:11:08;21.30;94.10
3850;DHT22;1940;51.052;13.678;2022-08-19T08:13:34;21.30;94.40
3850;DHT22;1940;51.052;13.678;2022-08-19T08:16:01;21.30;94.40
3850;DHT22;1940;51.052;13.678;2022-08-19T08:18:27;21.40;94.60
3850;DHT22;1940;51.052;13.678;2022-08-19T08:20:53;21.40;94.40
3850;DHT22;1940;51.052;13.678;2022-08-19T08:23:19;21.50;94.00
3850;DHT22;1940;51.052;13.678;2022-08-19T08:25:48;21.50;94.20
3850;DHT22;1940;51.052;13.678;2022-08-19T08:28:14;21.50;94.40
3850;DHT22;1940;51.052;13.678;2022-08-19T08:30:40;21.70;94.40
3850;DHT22;1940;51.052;13.678;2022-08-19T08:33:07;21.80;94.10
3850;DHT22;1940;51.052;13.678;2022-08-19T08:35:33;21.90;93.80
3850;DHT22;1940;51.052;13.678;2022-08-19T08:37:59;21.80;93.40
3850;DHT22;1940;51.052;13.678;2022-08-19T08:40:36;21.60;94.00
3850;DHT22;1940;51.052;13.678;2022-08-19T08:43:24;21.60;94.40
3850;DHT22;1940;51.052;13.678;2022-08-19T08:46:07;21.60;94.50
3850;DHT22;1940;51.052;13.678;2022-08-19T08:48:44;21.70;94.40
3850;DHT22;1940;51.052;13.678;2022-08-19T08:51:22;21.70;94.00
3850;DHT22;1940;51.052;13.678;2022-08-19T08:53:50;21.80;93.60
3850;DHT22;1940;51.052;13.678;2022-08-19T08:56:17;21.90;93.50
3850;DHT22;1940;51.052;13.678;2022-08-19T08:59:02;22.00;93.30
3850;DHT22;1940;51.052;13.678;2022-08-19T09:01:29;22.20;92.90
3850;DHT22;1940;51.052;13.678;2022-08-19T09:03:55;22.30;91.90
3850;DHT22;1940;51.052;13.678;2022-08-19T09:09:18;22.70;91.00
3850;DHT22;1940;51.052;13.678;2022-08-19T09:17:12;23.10;88.80
3850;DHT22;1940;51.052;13.678;2022-08-19T09:22:30;23.20;88.30
3850;DHT22;1940;51.052;13.678;2022-08-19T09:24:56;23.30;88.00
3850;DHT22;1940;51.052;13.678;2022-08-19T09:27:22;23.30;88.10
3850;DHT22;1940;51.052;13.678;2022-08-19T09:29:49;23.30;87.20
3850;DHT22;1940;51.052;13.678;2022-08-19T09:32:15;23.50;86.80
3850;DHT22;1940;51.052;13.678;2022-08-19T09:34:42;23.70;86.10
3850;DHT22;1940;51.052;13.678;2022-08-19T09:37:08;23.90;85.60
3850;DHT22;1940;51.052;13.678;2022-08-19T09:39:34;23.90;85.30
3850;DHT22;1940;51.052;13.678;2022-08-19T09:42:00;23.90;85.40
3850;DHT22;1940;51.052;13.678;2022-08-19T09:47:48;23.80;85.20
3850;DHT22;1940;51.052;13.678;2022-08-19T09:53:37;23.90;85.30
3850;DHT22;1940;51.052;13.678;2022-08-19T09:56:04;23.90;84.40
3850;DHT22;1940;51.052;13.678;2022-08-19T09:58:31;23.90;84.50
3850;DHT22;1940;51.052;13.678;2022-08-19T10:00:58;24.00;84.50
3850;DHT22;1940;51.052;13.678;2022-08-19T10:03:25;24.00;84.70
3850;DHT22;1940;51.052;13.678;2022-08-19T10:05:51;24.00;84.40
3850;DHT22;1940;51.052;13.678;2022-08-19T10:08:26;24.10;83.90
3850;DHT22;1940;51.052;13.678;2022-08-19T10:10:52;24.00;84.00
3850;DHT22;1940;51.052;13.678;2022-08-19T10:13:20;24.10;84.50
3850;DHT22;1940;51.052;13.678;2022-08-19T10:15:51;24.10;84.50
3850;DHT22;1940;51.052;13.678;2022-08-19T10:18:17;24.40;83.10
3850;DHT22;1940;51.052;13.678;2022-08-19T10:20:44;24.50;82.60
3850;DHT22;1940;51.052;13.678;2022-08-19T10:23:11;24.90;81.90
3850;DHT22;1940;51.052;13.678;2022-08-19T10:25:36;25.30;80.10
3850;DHT22;1940;51.052;13.678;2022-08-19T10:28:03;25.80;79.20
3850;DHT22;1940;51.052;13.678;2022-08-19T10:30:28;26.80;77.20
3850;DHT22;1940;51.052;13.678;2022-08-19T10:32:54;27.70;74.30
3850;DHT22;1940;51.052;13.678;2022-08-19T10:42:06;26.40;75.90
3850;DHT22;1940;51.052;13.678;2022-08-19T10:47:54;26.10;78.20
3850;DHT22;1940;51.052;13.678;2022-08-19T10:50:19;26.80;76.10
3850;DHT22;1940;51.052;13.678;2022-08-19T10:53:05;27.10;75.10
3850;DHT22;1940;51.052;13.678;2022-08-19T10:55:33;27.70;73.30
3850;DHT22;1940;51.052;13.678;2022-08-19T10:58:19;27.40;73.20
3850;DHT22;1940;51.052;13.678;2022-08-19T11:00:53;27.00;73.50
3850;DHT22;1940;51.052;13.678;2022-08-19T11:03:20;26.60;75.20
3850;DHT22;1940;51.052;13.678;2022-08-19T11:05:45;26.10;76.10
3850;DHT22;1940;51.052;13.678;2022-08-19T11:08:11;26.10;76.90
3850;DHT22;1940;51.052;13.678;2022-08-19T11:10:40;26.10;77.00
3850;DHT22;1940;51.052;13.678;2022-08-19T11:13:08;26.00;77.10
3850;DHT22;1940;51.052;13.678;2022-08-19T11:15:33;25.90;76.50
3850;DHT22;1940;51.052;13.678;2022-08-19T11:18:00;25.60;77.00
3850;DHT22;1940;51.052;13.678;2022-08-19T11:20:25;25.30;78.00
3850;DHT22;1940;51.052;13.678;2022-08-19T11:22:52;25.20;78.30
3850;DHT22;1940;51.052;13.678;2022-08-19T11:25:39;25.20;78.50
3850;DHT22;1940;51.052;13.678;2022-08-19T11:28:05;25.10;78.80
3850;DHT22;1940;51.052;13.678;2022-08-19T11:30:30;25.20;78.90
3850;DHT22;1940;51.052;13.678;2022-08-19T11:32:57;25.00;79.40
3850;DHT22;1940;51.052;13.678;2022-08-19T11:35:22;24.90;79.70
3850;DHT22;1940;51.052;13.678;2022-08-19T11:37:48;24.80;79.90
3850;DHT22;1940;51.052;13.678;2022-08-19T11:40:14;25.10;79.30
3850;DHT22;1940;51.052;13.678;2022-08-19T11:42:39;25.10;79.10
3850;DHT22;1940;51.052;13.678;2022-08-19T11:45:21;25.20;79.20
3850;DHT22;1940;51.052;13.678;2022-08-19T11:47:46;25.30;79.00
3850;DHT22;1940;51.052;13.678;2022-08-19T11:50:13;25.50;78.30
3850;DHT22;1940;51.052;13.678;2022-08-19T11:52:38;25.50;77.90
3850;DHT22;1940;51.052;13.678;2022-08-19T11:55:04;25.40;77.90
3850;DHT22;1940;51.052;13.678;2022-08-19T11:57:30;25.30;78.20
3850;DHT22;1940;51.052;13.678;2022-08-19T11:59:56;25.10;79.00
3850;DHT22;1940;51.052;13.678;2022-08-19T12:02:21;24.90;79.80
3850;DHT22;1940;51.052;13.678;2022-08-19T12:08:10;24.50;80.10
3850;DHT22;1940;51.052;13.678;2022-08-19T12:10:36;24.40;80.30
3850;DHT22;1940;51.052;13.678;2022-08-19T12:13:03;24.40;80.40
3850;DHT22;1940;51.052;13.678;2022-08-19T12:15:28;24.40;80.10
3850;DHT22;1940;51.052;13.678;2022-08-19T12:17:55;24.30;80.40
3850;DHT22;1940;51.052;13.678;2022-08-19T12:20:22;24.30;80.70
3850;DHT22;1940;51.052;13.678;2022-08-19T12:22:48;24.20;81.40
3850;DHT22;1940;51.052;13.678;2022-08-19T12:25:14;24.20;81.80
3850;DHT22;1940;51.052;13.678;2022-08-19T12:27:39;24.10;81.50
3850;DHT22;1940;51.052;13.678;2022-08-19T12:30:07;23.90;81.90
3850;DHT22;1940;51.052;13.678;2022-08-19T12:32:33;23.90;82.00
3850;DHT22;1940;51.052;13.678;2022-08-19T12:34:58;23.90;82.10
3850;DHT22;1940;51.052;13.678;2022-08-19T12:37:24;23.80;82.10
3850;DHT22;1940;51.052;13.678;2022-08-19T12:39:49;23.80;81.80
3850;DHT22;1940;51.052;13.678;2022-08-19T12:42:15;23.80;82.30
3850;DHT22;1940;51.052;13.678;2022-08-19T12:44:42;23.60;82.50
3850;DHT22;1940;51.052;13.678;2022-08-19T12:47:10;23.60;82.70
3850;DHT22;1940;51.052;13.678;2022-08-19T12:49:36;23.80;82.40
3850;DHT22;1940;51.052;13.678;2022-08-19T12:52:03;23.90;81.80
3850;DHT22;1940;51.052;13.678;2022-08-19T12:54:29;23.70;82.60
3850;DHT22;1940;51.052;13.678;2022-08-19T12:56:56;23.60;83.10
3850;DHT22;1940;51.052;13.678;2022-08-19T12:59:22;23.50;83.40
3850;DHT22;1940;51.052;13.678;2022-08-19T13:01:48;23.50;83.40
3850;DHT22;1940;51.052;13.678;2022-08-19T13:04:13;23.60;83.20
3850;DHT22;1940;51.052;13.678;2022-08-19T13:06:39;23.60;82.90
3850;DHT22;1940;51.052;13.678;2022-08-19T13:09:05;23.70;82.80
3850;DHT22;1940;51.052;13.678;2022-08-19T13:11:30;23.80;82.60
3850;DHT22;1940;51.052;13.678;2022-08-19T13:14:00;23.90;82.00
3850;DHT22;1940;51.052;13.678;2022-08-19T13:16:26;23.80;82.10
3850;DHT22;1940;51.052;13.678;2022-08-19T13:18:53;23.70;82.30
3850;DHT22;1940;51.052;13.678;2022-08-19T13:21:21;23.50;83.10
3850;DHT22;1940;51.052;13.678;2022-08-19T13:23:48;23.30;83.60
3850;DHT22;1940;51.052;13.678;2022-08-19T13:26:14;23.40;83.50
3850;DHT22;1940;51.052;13.678;2022-08-19T13:28:41;23.30;83.70
3850;DHT22;1940;51.052;13.678;2022-08-19T13:31:27;23.50;83.30
3850;DHT22;1940;51.052;13.678;2022-08-19T13:34:12;23.50;83.20
3850;DHT22;1940;51.052;13.678;2022-08-19T13:36:38;23.20;83.90
3850;DHT22;1940;51.052;13.678;2022-08-19T13:39:05;23.20;84.30
3850;DHT22;1940;51.052;13.678;2022-08-19T13:41:32;23.00;85.00
3850;DHT22;1940;51.052;13.678;2022-08-19T13:43:59;23.00;85.20
3850;DHT22;1940;51.052;13.678;2022-08-19T13:46:24;23.00;85.20
3850;DHT22;1940;51.052;13.678;2022-08-19T13:48:50;23.00;85.00
3850;DHT22;1940;51.052;13.678;2022-08-19T13:51:17;23.00;85.10
3850;DHT22;1940;51.052;13.678;2022-08-19T13:53:43;23.00;84.90
3850;DHT22;1940;51.052;13.678;2022-08-19T13:56:11;23.00;84.90
3850;DHT22;1940;51.052;13.678;2022-08-19T13:58:37;23.10;84.70
3850;DHT22;1940;51.052;13.678;2022-08-19T14:01:04;23.30;84.20
3850;DHT22;1940;51.052;13.678;2022-08-19T14:03:32;23.20;84.00
3850;DHT22;1940;51.052;13.678;2022-08-19T14:05:58;23.10;84.20
3850;DHT22;1940;51.052;13.678;2022-08-19T14:08:23;23.20;84.00
3850;DHT22;1940;51.052;13.678;2022-08-19T14:10:49;23.20;83.90
3850;DHT22;1940;51.052;13.678;2022-08-19T14:13:18;23.20;84.20
3850;DHT22;1940;51.052;13.678;2022-08-19T14:15:44;23.30;84.00
3850;DHT22;1940;51.052;13.678;2022-08-19T14:18:10;23.20;83.90
3850;DHT22;1940;51.052;13.678;2022-08-19T14:20:36;23.20;84.00
3850;DHT22;1940;51.052;13.678;2022-08-19T14:23:02;23.10;84.20
3850;DHT22;1940;51.052;13.678;2022-08-19T14:25:29;23.00;84.50
3850;DHT22;1940;51.052;13.678;2022-08-19T14:27:56;23.00;84.60
3850;DHT22;1940;51.052;13.678;2022-08-19T14:30:28;23.00;84.50
3850;DHT22;1940;51.052;13.678;2022-08-19T14:32:55;23.00;84.70
3850;DHT22;1940;51.052;13.678;2022-08-19T14:35:22;23.00;84.50
3850;DHT22;1940;51.052;13.678;2022-08-19T14:37:48;22.90;84.80
3850;DHT22;1940;51.052;13.678;2022-08-19T14:40:18;23.00;84.60
3850;DHT22;1940;51.052;13.678;2022-08-19T14:42:45;22.90;84.90
3850;DHT22;1940;51.052;13.678;2022-08-19T14:45:12;22.90;85.20
3850;DHT22;1940;51.052;13.678;2022-08-19T14:47:38;22.90;85.00
3850;DHT22;1940;51.052;13.678;2022-08-19T14:50:06;22.90;85.20
3850;DHT22;1940;51.052;13.678;2022-08-19T14:52:32;22.90;84.90
3850;DHT22;1940;51.052;13.678;2022-08-19T14:54:58;23.00;85.00
3850;DHT22;1940;51.052;13.678;2022-08-19T14:57:23;23.00;84.80
3850;DHT22;1940;51.052;13.678;2022-08-19T14:59:48;23.00;84.80
3850;DHT22;1940;51.052;13.678;2022-08-19T15:02:14;23.10;84.40
3850;DHT22;1940;51.052;13.678;2022-08-19T15:04:40;23.10;84.30
3850;DHT22;1940;51.052;13.678;2022-08-19T15:07:05;22.90;84.70
3850;DHT22;1940;51.052;13.678;2022-08-19T15:09:31;22.90;84.80
3850;DHT22;1940;51.052;13.678;2022-08-19T15:11:57;22.90;84.90
3850;DHT22;1940;51.052;13.678;2022-08-19T15:14:25;22.90;84.80
3850;DHT22;1940;51.052;13.678;2022-08-19T15:16:51;22.90;85.00
3850;DHT22;1940;51.052;13.678;2022-08-19T15:19:17;22.90;84.90
3850;DHT22;1940;51.052;13.678;2022-08-19T15:21:43;23.00;84.50
3850;DHT22;1940;51.052;13.678;2022-08-19T15:24:08;23.00;84.50
3850;DHT22;1940;51.052;13.678;2022-08-19T15:26:34;23.00;84.30
3850;DHT22;1940;51.052;13.678;2022-08-19T15:29:00;23.00;84.20
3850;DHT22;1940;51.052;13.678;2022-08-19T15:31:26;22.90;84.10
3850;DHT22;1940;51.052;13.678;2022-08-19T15:33:53;22.80;84.50
3850;DHT22;1940;51.052;13.678;2022-08-19T15:36:21;22.70;84.70
3850;DHT22;1940;51.052;13.678;2022-08-19T15:38:48;22.70;84.60
3850;DHT22;1940;51.052;13.678;2022-08-19T15:41:24;22.60;85.00
3850;DHT22;1940;51.052;13.678;2022-08-19T15:43:53;22.60;85.20
3850;DHT22;1940;51.052;13.678;2022-08-19T15:46:23;22.60;85.30
3850;DHT22;1940;51.052;13.678;2022-08-19T15:48:50;22.70;84.90
3850;DHT22;1940;51.052;13.678;2022-08-19T15:51:17;22.80;84.40
3850;DHT22;1940;51.052;13.678;2022-08-19T15:53:43;22.90;83.90
3850;DHT22;1940;51.052;13.678;2022-08-19T15:56:10;23.00;83.60
3850;DHT22;1940;51.052;13.678;2022-08-19T15:58:36;23.10;83.50
3850;DHT22;1940;51.052;13.678;2022-08-19T16:01:20;23.10;83.20
3850;DHT22;1940;51.052;13.678;2022-08-19T16:04:04;23.20;83.00
3850;DHT22;1940;51.052;13.678;2022-08-19T16:06:52;23.20;83.10
3850;DHT22;1940;51.052;13.678;2022-08-19T16:09:19;23.10;82.80
3850;DHT22;1940;51.052;13.678;2022-08-19T16:11:45;23.20;82.80
3850;DHT22;1940;51.052;13.678;2022-08-19T16:14:13;23.10;82.90
3850;DHT22;1940;51.052;13.678;2022-08-19T16:16:39;23.10;83.10
3850;DHT22;1940;51.052;13.678;2022-08-19T16:19:07;23.10;83.00
3850;DHT22;1940;51.052;13.678;2022-08-19T16:21:33;23.10;82.90